Time;durP1;ratioP1;P1;durP2;ratioP2;P2;SDS_P1;SDS_P2;PMS_P1;PMS_P2;Temp;Humidity;BMP_temperature;BMP_pressure;BME280_temperature;BME280_humidity;BME280_pressure;Samples;Min_cycle;Max_cycle;Signal;HPM_P1;HPM_P2
2021/11/12 00:14:26;;;;;;;23.77;9.23;;;;;;;0.65;100.00;102010.24;1502777;95;21074;-88
2021/11/12 00:16:56;;;;;;;24.40;8.85;;;;;;;0.65;100.00;102008.41;1484713;95;21506;-88
2021/11/12 00:19:22;;;;;;;21.10;8.93;;;;;;;0.64;100.00;102005.91;1502841;95;21696;-88
2021/11/12 00:21:48;;;;;;;24.25;9.98;;;;;;;0.65;100.00;101999.13;1503032;95;21139;-89
2021/11/12 00:24:14;;;;;;;21.33;9.68;;;;;;;0.70;100.00;102005.77;1503184;95;20931;-89
2021/11/12 00:26:40;;;;;;;24.25;10.10;;;;;;;0.73;100.00;102000.14;1502869;95;21023;-89
2021/11/12 00:29:08;;;;;;;27.48;9.83;;;;;;;0.72;100.00;101995.34;1502897;95;21061;-88
2021/11/12 00:39:25;;;;;;;27.62;10.30;;;;;;;0.71;100.00;101986.20;1517371;92;21148;-88
2021/11/12 00:41:54;;;;;;;24.10;9.90;;;;;;;0.71;100.00;101986.20;1508712;93;21145;-88
2021/11/12 00:44:27;;;;;;;27.60;10.50;;;;;;;0.72;100.00;101986.55;1508639;94;21132;-88
2021/11/12 00:49:18;;;;;;;27.15;10.88;;;;;;;0.70;100.00;101981.89;1580988;88;21115;-88
2021/11/12 00:51:44;;;;;;;28.02;11.28;;;;;;;0.69;100.00;101969.13;1580437;88;21043;-89
2021/11/12 00:54:13;;;;;;;28.87;11.45;;;;;;;0.69;100.00;101966.48;1581124;88;21598;-88
2021/11/12 00:56:39;;;;;;;29.27;11.53;;;;;;;0.70;100.00;101964.65;1580916;88;21137;-89
2021/11/12 00:59:07;;;;;;;38.70;15.48;;;;;;;0.70;100.00;101966.80;1581033;88;21425;-88
2021/11/12 01:01:38;;;;;;;37.42;15.23;;;;;;;0.68;100.00;101958.20;1580912;89;21053;-88
2021/11/12 01:04:07;;;;;;;35.92;14.00;;;;;;;0.68;100.00;101956.36;1581154;88;21469;-88
2021/11/12 01:06:35;;;;;;;36.83;13.85;;;;;;;0.69;100.00;101958.52;1581184;88;21559;-88
2021/11/12 01:09:09;;;;;;;32.67;12.58;;;;;;;0.71;100.00;101954.36;1581225;88;21047;-88
2021/11/12 01:11:35;;;;;;;33.65;12.98;;;;;;;0.70;100.00;101952.71;1601707;88;21599;-88
2021/11/12 01:14:03;;;;;;;36.23;13.58;;;;;;;0.70;100.00;101950.06;1621099;88;21157;-88
2021/11/12 01:16:30;;;;;;;34.27;13.80;;;;;;;0.71;100.00;101943.75;1620990;88;21105;-89
2021/11/12 01:18:56;;;;;;;36.95;13.58;;;;;;;0.71;100.00;101944.61;1620510;88;21082;-88
2021/11/12 01:21:24;;;;;;;38.30;15.10;;;;;;;0.72;100.00;101949.41;1620981;88;21609;-89
2021/11/12 01:23:53;;;;;;;45.25;16.23;;;;;;;0.73;100.00;101944.42;1620556;88;21213;-88
2021/11/12 01:26:22;;;;;;;41.80;16.05;;;;;;;0.75;100.00;101943.78;1620944;87;21233;-89
2021/11/12 01:28:49;;;;;;;44.53;17.40;;;;;;;0.75;100.00;101941.95;1620926;88;21110;-89
2021/11/12 01:31:16;;;;;;;55.33;16.62;;;;;;;0.75;100.00;101939.30;1621066;87;21109;-88
2021/11/12 01:33:43;;;;;;;42.70;16.27;;;;;;;0.74;100.00;101939.48;1620824;88;20956;-89
2021/11/12 01:38:58;;;;;;;40.03;15.00;;;;;;;0.75;100.00;101937.14;1632215;85;21046;-88
2021/11/12 01:41:25;;;;;;;41.53;15.65;;;;;;;0.76;100.00;101940.12;1632504;85;21555;-88
2021/11/12 01:43:56;;;;;;;45.28;16.65;;;;;;;0.76;100.00;101936.14;1632435;85;22656;-88
2021/11/12 02:01:38;;;;;;;43.13;15.98;;;;;;;1.09;100.00;101922.46;1548227;92;21063;-89
2021/11/12 02:04:06;;;;;;;53.10;18.50;;;;;;;1.20;100.00;101923.94;1528357;92;21056;-88
2021/11/12 02:06:34;;;;;;;50.30;18.55;;;;;;;1.30;100.00;101922.80;1548195;92;21093;-88
2021/11/12 02:09:08;;;;;;;46.90;17.73;;;;;;;1.38;100.00;101923.28;1548175;92;21055;-88
2021/11/12 02:11:31;;;;;;;47.23;17.23;;;;;;;1.46;100.00;101918.47;1544914;92;21063;-88
2021/11/12 02:13:58;;;;;;;49.85;17.17;;;;;;;1.53;100.00;101916.33;1548359;92;21935;-88
2021/11/12 02:16:30;;;;;;;48.17;17.17;;;;;;;1.61;100.00;101914.64;1548062;92;21018;-89
2021/11/12 02:18:52;;;;;;;42.05;15.95;;;;;;;1.68;100.00;101924.95;1545316;92;21058;-88
2021/11/12 02:24:03;;;;;;;43.35;16.50;;;;;;;1.80;100.00;101921.77;1548412;92;21111;-89
2021/11/12 02:26:29;;;;;;;44.63;16.00;;;;;;;1.87;100.00;101918.42;1580639;89;21105;-88
2021/11/12 02:28:57;;;;;;;42.08;15.83;;;;;;;1.92;100.00;101923.56;1594931;90;21121;-89
2021/11/12 02:31:26;;;;;;;41.58;16.30;;;;;;;1.97;100.00;101912.41;1595076;90;21538;-89
2021/11/12 02:33:56;;;;;;;49.25;17.52;;;;;;;2.01;100.00;101911.08;1595333;90;21042;-88
2021/11/12 02:36:24;;;;;;;44.50;16.45;;;;;;;2.01;100.00;101911.08;1594909;90;21586;-89
2021/11/12 02:38:54;;;;;;;51.88;18.45;;;;;;;2.05;100.00;101905.73;1606658;87;21579;-89
2021/11/12 02:41:23;;;;;;;43.95;16.50;;;;;;;2.05;100.00;101902.58;1608492;89;21634;-89
2021/11/12 02:43:50;;;;;;;46.42;17.20;;;;;;;2.07;100.00;101897.61;1608400;87;21063;-88
2021/11/12 02:46:20;;;;;;;43.50;16.20;;;;;;;2.08;100.00;101894.77;1608034;87;21102;-89
2021/11/12 02:48:47;;;;;;;46.05;15.75;;;;;;;2.12;100.00;101895.24;1582848;89;21065;-89
2021/11/12 02:51:21;;;;;;;42.73;15.48;;;;;;;2.15;100.00;101890.94;1608313;87;21142;-90
2021/11/12 02:53:47;;;;;;;48.25;15.15;;;;;;;2.17;100.00;101887.08;1607817;89;21088;-89
2021/11/12 02:58:42;;;;;;;40.85;15.75;;;;;;;2.26;100.00;101879.90;1534691;91;21041;-89
2021/11/12 03:01:10;;;;;;;36.55;14.38;;;;;;;2.29;100.00;101871.58;1564727;91;21094;-89
2021/11/12 03:03:37;;;;;;;36.23;14.25;;;;;;;2.33;100.00;101871.57;1538371;91;21360;-89
2021/11/12 03:06:04;;;;;;;39.30;14.58;;;;;;;2.36;100.00;101869.07;1564269;91;21108;-88
2021/11/12 03:08:30;;;;;;;41.77;15.68;;;;;;;2.37;100.00;101864.06;1564448;91;21030;-88
2021/11/12 03:10:56;;;;;;;37.53;14.78;;;;;;;2.40;100.00;101861.05;1564846;91;21031;-89
2021/11/12 03:13:26;;;;;;;40.30;14.33;;;;;;;2.42;100.00;101855.07;1564405;91;21696;-89
2021/11/12 03:15:52;;;;;;;36.20;13.38;;;;;;;2.44;100.00;101845.06;1564317;91;21161;-89
2021/11/12 03:18:19;;;;;;;37.48;14.35;;;;;;;2.47;100.00;101842.05;1564235;91;21002;-89
2021/11/12 03:20:45;;;;;;;38.73;14.23;;;;;;;2.49;100.00;101842.71;1564543;91;21106;-88
2021/11/12 03:25:51;;;;;;;35.40;14.18;;;;;;;2.56;100.00;101837.03;1524452;94;21593;-88
2021/11/12 04:00:47;;;;;;;34.38;13.68;;;;;;;2.76;100.00;101780.66;1567143;90;21042;-89
2021/11/12 05:13:48;;;;;;;20.40;9.43;;;;;;;3.36;100.00;101723.33;1483913;96;20947;-90
2021/11/12 05:46:13;;;;;;;24.47;10.50;;;;;;;4.40;100.00;101708.91;1600220;88;21078;-88
2021/11/12 05:56:34;;;;;;;22.17;10.75;;;;;;;6.01;100.00;101700.34;1600000;88;21602;-89
2021/11/12 05:59:00;;;;;;;25.95;10.18;;;;;;;7.00;100.00;101690.16;1600626;88;20960;-89
2021/11/12 06:01:26;;;;;;;23.07;9.93;;;;;;;7.64;100.00;101693.38;1600488;88;20939;-89
2021/11/12 06:03:52;;;;;;;24.10;9.53;;;;;;;7.38;100.00;101682.75;1600558;88;21002;-89
2021/11/12 06:06:18;;;;;;;24.00;9.58;;;;;;;7.76;100.00;101679.30;1600651;89;21038;-89
2021/11/12 06:08:44;;;;;;;22.25;10.05;;;;;;;7.83;100.00;101678.23;1600631;88;21091;-89
2021/11/12 06:11:09;;;;;;;23.55;9.10;;;;;;;7.89;100.00;101672.53;1579415;88;21744;-88
2021/11/12 06:13:36;;;;;;;17.98;7.95;;;;;;;7.91;100.00;101674.45;1600660;88;20931;-89
2021/11/12 06:16:02;;;;;;;20.90;9.28;;;;;;;7.67;100.00;101680.87;1600314;88;21147;-89
2021/11/12 06:18:28;;;;;;;23.47;9.63;;;;;;;7.59;100.00;101680.30;1600598;88;21054;-89
2021/11/12 06:20:54;;;;;;;18.15;7.80;;;;;;;8.24;100.00;101683.67;1600545;89;21116;-89
2021/11/12 06:23:20;;;;;;;15.95;7.92;;;;;;;8.48;100.00;101678.05;1600541;88;21013;-89
2021/11/12 06:25:46;;;;;;;17.82;8.13;;;;;;;9.20;100.00;101675.69;1600413;88;21038;-88
2021/11/12 06:28:12;;;;;;;16.35;8.00;;;;;;;9.45;100.00;101673.46;1600468;88;21708;-89
2021/11/12 06:30:38;;;;;;;15.13;7.87;;;;;;;9.53;100.00;101675.85;1600454;88;21483;-90
2021/11/12 06:33:05;;;;;;;19.70;8.15;;;;;;;10.78;100.00;101665.59;1600429;88;21108;-89
2021/11/12 06:35:31;;;;;;;14.60;7.33;;;;;;;11.49;100.00;101660.91;1600323;88;21118;-89
2021/11/12 06:37:57;;;;;;;16.55;7.67;;;;;;;11.10;100.00;101655.79;1600275;88;21074;-90
2021/11/12 06:40:23;;;;;;;15.13;7.75;;;;;;;10.54;100.00;101654.52;1600457;88;21050;-89
2021/11/12 06:43:03;;;;;;;16.65;7.80;;;;;;;10.14;100.00;101651.08;1619196;86;21125;-89
2021/11/12 06:50:38;;;;;;;15.55;8.00;;;;;;;9.22;100.00;101633.27;1631973;85;21113;-89
2021/11/12 06:53:06;;;;;;;15.78;7.37;;;;;;;8.86;100.00;101634.91;1632216;85;21301;-88
2021/11/12 06:55:32;;;;;;;17.30;7.03;;;;;;;8.68;100.00;101628.66;1632072;85;21076;-89
2021/11/12 06:57:58;;;;;;;14.20;7.55;;;;;;;8.56;100.00;101625.88;1632494;85;21318;-88
2021/11/12 07:00:24;;;;;;;15.95;7.42;;;;;;;8.58;100.00;101610.38;1632269;87;21062;-88
2021/11/12 07:02:51;;;;;;;17.77;7.28;;;;;;;8.57;100.00;101608.73;1632214;85;21072;-87
2021/11/12 07:05:17;;;;;;;14.85;6.45;;;;;;;8.57;100.00;101606.87;1631977;85;21038;-88
2021/11/12 07:07:45;;;;;;;15.28;6.45;;;;;;;8.54;100.00;101601.12;1632217;85;21093;-89
2021/11/12 07:10:11;;;;;;;15.95;6.28;;;;;;;8.60;100.00;101605.08;1632048;85;21071;-88
2021/11/12 07:12:37;;;;;;;15.28;7.15;;;;;;;8.58;100.00;101603.66;1647674;84;21037;-87
2021/11/12 07:15:04;;;;;;;16.30;6.70;;;;;;;8.53;100.00;101603.48;1684604;84;21525;-87
2021/11/12 07:17:31;;;;;;;17.60;6.53;;;;;;;8.44;100.00;101602.13;1684848;84;21012;-87
2021/11/12 07:20:01;;;;;;;18.07;6.70;;;;;;;8.29;100.00;101602.44;1684441;84;21020;-87
2021/11/12 07:22:28;;;;;;;15.88;6.08;;;;;;;8.30;100.00;101596.05;1680695;84;21120;-88
2021/11/12 07:24:54;;;;;;;16.55;5.90;;;;;;;8.31;100.00;101597.15;1603070;88;21117;-87
2021/11/12 07:27:20;;;;;;;17.17;6.50;;;;;;;8.35;100.00;101584.95;1625439;87;21070;-87
2021/11/12 07:29:48;;;;;;;11.73;6.17;;;;;;;8.49;100.00;101581.63;1625525;88;21110;-87
2021/11/12 07:32:14;;;;;;;12.25;5.90;;;;;;;8.60;100.00;101579.55;1625135;87;21055;-87
2021/11/12 07:34:40;;;;;;;16.95;6.72;;;;;;;8.75;100.00;101590.47;1625759;87;21721;-86
2021/11/12 07:37:13;;;;;;;14.55;6.22;;;;;;;8.85;100.00;101586.73;1625049;87;21023;-85
2021/11/12 07:42:31;;;;;;;12.05;5.37;;;;;;;9.28;100.00;101583.95;1625294;87;21546;-85
2021/11/12 07:47:19;;;;;;;18.32;5.42;;;;;;;10.67;100.00;101579.61;1610461;87;21089;-86
2021/11/12 07:49:49;;;;;;;11.53;4.62;;;;;;;11.75;100.00;101576.35;1576230;89;21561;-86
2021/11/12 07:52:21;;;;;;;12.35;4.97;;;;;;;12.68;100.00;101561.89;1576318;89;21103;-86
2021/11/12 07:54:49;;;;;;;11.12;5.05;;;;;;;13.33;100.00;101566.50;1576305;89;21047;-86
2021/11/12 07:57:16;;;;;;;18.17;5.50;;;;;;;13.52;100.00;101568.85;1573055;91;21133;-86
2021/11/12 07:59:51;;;;;;;22.10;5.35;;;;;;;13.85;100.00;101561.88;1575949;89;21956;-86
2021/11/12 08:02:18;;;;;;;12.18;5.58;;;;;;;15.10;100.00;101559.12;1576282;89;21094;-86
2021/11/12 08:04:47;;;;;;;15.18;5.97;;;;;;;15.00;100.00;101550.95;1576022;89;21062;-86
2021/11/12 08:07:15;;;;;;;19.75;6.30;;;;;;;15.13;100.00;101553.70;1575769;89;21596;-84
2021/11/12 08:12:25;;;;;;;10.65;5.30;;;;;;;16.21;91.30;101543.23;1575800;89;21121;-84
2021/11/12 08:20:30;;;;;;;11.80;5.22;;;;;;;14.82;90.97;101544.06;1576107;89;21072;-84
2021/11/12 08:25:26;;;;;;;11.08;5.28;;;;;;;13.73;94.09;101540.88;1626159;86;21183;-85
2021/11/12 08:30:23;;;;;;;11.83;5.25;;;;;;;13.06;100.00;101535.83;1626322;86;21225;-84
2021/11/12 08:48:16;;;;;;;13.00;6.05;;;;;;;12.32;100.00;101494.32;1515595;94;21616;-85
2021/11/12 08:50:40;;;;;;;17.85;5.42;;;;;;;12.27;100.00;101497.79;1512799;94;21068;-85
2021/11/12 08:53:12;;;;;;;16.40;5.78;;;;;;;12.35;100.00;101502.74;1522041;91;21571;-85
2021/11/12 08:55:43;;;;;;;12.25;5.12;;;;;;;12.39;100.00;101489.03;1568425;90;21067;-86
2021/11/12 08:58:11;;;;;;;9.37;4.73;;;;;;;12.32;100.00;101482.97;1521333;93;21671;-85
2021/11/12 09:00:40;;;;;;;10.95;5.47;;;;;;;12.43;100.00;101487.45;1521293;93;21846;-85
2021/11/12 09:03:08;;;;;;;14.03;5.30;;;;;;;12.43;100.00;101487.45;1521249;93;21810;-85
2021/11/12 09:05:35;;;;;;;10.82;5.53;;;;;;;12.58;100.00;101481.42;1520961;93;21590;-85
2021/11/12 09:08:02;;;;;;;15.05;5.40;;;;;;;12.66;100.00;101481.53;1521189;93;21666;-85
2021/11/12 09:10:29;;;;;;;13.95;4.58;;;;;;;12.62;100.00;101475.01;1521156;93;21147;-86
2021/11/12 09:17:57;;;;;;;9.63;4.12;;;;;;;11.97;100.00;101462.51;1422180;100;21168;-86
2021/11/12 09:20:25;;;;;;;9.18;4.58;;;;;;;11.81;100.00;101458.70;1425081;100;21148;-86
2021/11/12 09:22:53;;;;;;;9.75;4.15;;;;;;;11.76;100.00;101456.45;1424934;99;21144;-85
2021/11/12 09:25:23;;;;;;;12.47;4.28;;;;;;;11.75;100.00;101456.99;1445166;98;21062;-85
2021/11/12 09:27:50;;;;;;;13.03;5.20;;;;;;;11.67;100.00;101456.59;1445340;99;21065;-85
2021/11/12 09:30:23;;;;;;;11.25;4.92;;;;;;;11.57;100.00;101455.90;1445303;99;21238;-85
2021/11/12 09:32:52;;;;;;;13.40;5.25;;;;;;;11.52;100.00;101449.06;1445227;99;21120;-86
2021/11/12 09:35:19;;;;;;;9.98;4.58;;;;;;;11.52;100.00;101440.42;1445112;98;21187;-85
2021/11/12 09:37:46;;;;;;;19.00;5.53;;;;;;;11.51;100.00;101443.38;1445106;99;21269;-85
2021/11/12 09:40:12;;;;;;;15.83;5.85;;;;;;;11.46;100.00;101440.59;1455443;97;21138;-86
2021/11/12 09:42:41;;;;;;;21.17;6.30;;;;;;;11.44;100.00;101427.87;1461088;98;21178;-86
2021/11/12 09:45:10;;;;;;;17.20;5.70;;;;;;;11.33;100.00;101430.41;1489059;93;21144;-86
2021/11/12 09:47:38;;;;;;;16.30;5.33;;;;;;;11.34;100.00;101430.69;1512279;93;21167;-87
2021/11/12 09:50:12;;;;;;;12.53;5.70;;;;;;;11.42;100.00;101432.71;1512182;93;21156;-84
2021/11/12 09:52:41;;;;;;;15.68;6.20;;;;;;;11.50;100.00;101433.13;1487729;96;21197;-86
2021/11/12 09:55:08;;;;;;;15.75;6.53;;;;;;;11.46;100.00;101429.27;1489507;96;21086;-85
2021/11/12 09:57:34;;;;;;;18.00;7.22;;;;;;;11.39;100.00;101430.50;1489957;96;21234;-85
2021/11/12 10:00:05;;;;;;;19.48;8.28;;;;;;;11.34;100.00;101425.83;1489735;96;20936;-84
2021/11/12 10:02:40;;;;;;;22.10;8.43;;;;;;;11.29;100.00;101422.50;1489659;95;21136;-85
2021/11/12 10:05:02;;;;;;;20.80;8.25;;;;;;;11.28;100.00;101416.82;1486772;95;21098;-84
2021/11/12 10:07:35;;;;;;;22.30;8.63;;;;;;;11.27;100.00;101413.84;1489725;96;21176;-84
2021/11/12 10:10:09;;;;;;;21.82;9.25;;;;;;;11.26;100.00;101418.12;1487317;94;21188;-84
2021/11/12 10:12:46;;;;;;;22.98;9.60;;;;;;;11.29;100.00;101410.89;1406759;101;21593;-85
2021/11/12 10:15:19;;;;;;;23.25;10.25;;;;;;;11.24;100.00;101411.64;1411076;101;21202;-85
2021/11/12 10:17:47;;;;;;;;;;;;;;;11.20;100.00;101409.66;1413448;101;21686;-84
2021/11/12 10:20:20;;;;;;;21.70;9.58;;;;;;;11.22;100.00;101406.19;1411531;101;20169;-84
2021/11/12 10:22:50;;;;;;;21.12;8.55;;;;;;;11.21;100.00;101406.73;1367122;104;21178;-86
2021/11/12 10:25:17;;;;;;;21.55;9.23;;;;;;;11.18;100.00;101411.27;1372273;100;21265;-85
2021/11/12 10:27:50;;;;;;;24.18;9.85;;;;;;;11.13;100.00;101404.42;1425556;100;21128;-86
2021/11/12 10:30:28;;;;;;;24.82;9.88;;;;;;;11.09;100.00;101404.10;1425425;100;21274;-86
2021/11/12 10:32:57;;;;;;;21.20;10.18;;;;;;;11.04;100.00;101389.17;1424259;100;21489;-87
2021/11/12 10:35:30;;;;;;;21.37;9.33;;;;;;;11.07;100.00;101404.05;1425450;100;21684;-85
2021/11/12 10:38:10;;;;;;;22.42;9.68;;;;;;;11.03;100.00;101396.98;1425634;100;21150;-86
2021/11/12 10:40:37;;;;;;;29.70;9.25;;;;;;;11.07;100.00;101403.52;1420518;99;21087;-85
2021/11/12 10:43:03;;;;;;;19.48;8.48;;;;;;;11.12;100.00;101404.15;1418989;100;21137;-85
2021/11/12 10:45:34;;;;;;;22.42;9.50;;;;;;;11.15;100.00;101402.31;1418923;100;21578;-84
2021/11/12 10:48:09;;;;;;;20.77;8.38;;;;;;;11.16;100.00;101404.48;1418947;100;21176;-85
2021/11/12 10:50:40;;;;;;;23.52;10.23;;;;;;;11.17;100.00;101398.82;1439175;98;21226;-86
2021/11/12 10:53:09;;;;;;;26.73;9.88;;;;;;;11.20;100.00;101393.47;1422307;98;21163;-84
2021/11/12 10:55:36;;;;;;;23.77;10.53;;;;;;;11.20;100.00;101391.58;1440389;98;21102;-85
2021/11/12 10:58:08;;;;;;;25.20;10.28;;;;;;;11.26;100.00;101395.19;1440040;98;21174;-85
2021/11/12 11:00:47;;;;;;;20.72;8.75;;;;;;;11.31;100.00;101397.45;1440120;98;21097;-85
2021/11/12 11:03:23;;;;;;;26.30;9.85;;;;;;;11.30;100.00;101392.31;1440240;98;21142;-86
2021/11/12 11:05:58;;;;;;;22.32;8.98;;;;;;;11.21;100.00;101391.89;1439913;98;21089;-85
2021/11/12 11:08:26;;;;;;;23.67;9.83;;;;;;;11.20;100.00;101381.33;1449579;91;21097;-84
2021/11/12 11:11:02;;;;;;;22.60;9.23;;;;;;;11.13;100.00;101381.50;1573574;91;21160;-85
2021/11/12 11:13:33;;;;;;;21.75;8.65;;;;;;;11.09;100.00;101380.36;1483541;96;21126;-84
2021/11/12 11:16:03;;;;;;;24.65;8.63;;;;;;;11.04;100.00;101364.89;1446313;97;21154;-85
2021/11/12 11:18:50;;;;;;;25.32;8.20;;;;;;;11.00;100.00;101365.61;1385519;102;21195;-84
2021/11/12 11:24:06;;;;;;;21.42;6.58;;;;;;;10.98;100.00;101365.05;1398702;102;20255;-84
2021/11/12 11:26:46;;;;;;;19.15;7.47;;;;;;;10.99;100.00;101363.45;1400484;102;21184;-84
2021/11/12 11:29:16;;;;;;;23.70;8.60;;;;;;;11.01;100.00;101355.94;1400761;102;21171;-84
2021/11/12 11:31:43;;;;;;;25.10;9.85;;;;;;;11.02;100.00;101356.22;1391492;103;21080;-84
2021/11/12 11:34:10;;;;;;;29.45;9.68;;;;;;;11.00;100.00;101358.87;1391584;103;21364;-84
2021/11/12 11:36:44;;;;;;;31.95;11.40;;;;;;;10.98;100.00;101361.02;1391403;103;21179;-84
2021/11/12 11:39:10;;;;;;;25.88;11.50;;;;;;;10.92;100.00;101362.80;1391340;101;21136;-84
2021/11/12 11:41:37;;;;;;;34.33;11.18;;;;;;;10.87;100.00;101356.77;1390550;103;21133;-84
2021/11/12 11:44:05;;;;;;;29.07;10.58;;;;;;;10.82;100.00;101359.91;1390502;102;21670;-84
2021/11/12 11:46:38;;;;;;;23.60;8.95;;;;;;;10.79;100.00;101348.27;1390374;103;22005;-84
2021/11/12 11:49:15;;;;;;;22.98;9.10;;;;;;;10.83;100.00;101353.47;1390361;101;21374;-84
2021/11/12 11:51:55;;;;;;;25.55;9.20;;;;;;;10.82;100.00;101351.28;1351387;106;21194;-83
2021/11/12 11:54:24;;;;;;;23.98;8.70;;;;;;;10.81;100.00;101349.66;1351100;106;21311;-84
2021/11/12 11:56:55;;;;;;;30.60;10.40;;;;;;;10.81;100.00;101352.89;1351392;106;21588;-84
2021/11/12 11:59:28;;;;;;;28.10;10.50;;;;;;;10.78;100.00;101354.19;1351177;106;21207;-85
2021/11/12 12:02:00;;;;;;;28.23;10.23;;;;;;;10.76;100.00;101353.60;1351314;106;21156;-86
2021/11/12 12:04:34;;;;;;;27.65;9.80;;;;;;;10.66;100.00;101338.61;1351369;106;21300;-83
2021/11/12 12:07:13;;;;;;;28.95;11.03;;;;;;;10.76;100.00;101351.44;1328728;108;21247;-84
2021/11/12 12:09:52;;;;;;;30.02;10.60;;;;;;;10.72;100.00;101354.34;1333061;104;21667;-84
2021/11/12 12:12:36;;;;;;;35.13;11.28;;;;;;;10.69;100.00;101355.11;1368916;103;21340;-84
2021/11/12 12:15:09;;;;;;;;;;;;;;;10.68;100.00;101349.97;1375606;99;21710;-84
2021/11/12 12:20:51;;;;;;;46.15;14.05;;;;;;;10.67;100.00;101349.66;1387901;101;21216;-85
2021/11/12 12:43:37;;;;;;;52.48;16.12;;;;;;;10.46;100.00;101339.85;1448838;96;21666;-84
2021/11/12 13:25:58;;;;;;;45.58;16.35;;;;;;;9.77;100.00;101348.38;1453334;98;21106;-84
2021/11/12 13:28:47;;;;;;;58.13;17.87;;;;;;;9.67;100.00;101348.95;1435450;98;21190;-84
2021/11/12 13:31:19;;;;;;;58.10;17.87;;;;;;;9.60;100.00;101355.00;1435324;99;21165;-84
2021/11/12 13:33:58;;;;;;;53.80;18.82;;;;;;;9.52;100.00;101358.84;1435541;100;21638;-84
2021/11/12 13:36:37;;;;;;;62.35;19.50;;;;;;;9.46;100.00;101359.78;1435466;100;22207;-84
2021/11/12 13:39:17;;;;;;;53.42;19.48;;;;;;;9.44;100.00;101364.59;1435182;100;21143;-84
2021/11/12 13:41:42;;;;;;;52.30;18.55;;;;;;;9.34;100.00;101361.65;1463030;97;21076;-84
2021/11/12 13:44:12;;;;;;;56.88;19.12;;;;;;;9.26;100.00;101361.45;1476014;95;21616;-84
2021/11/12 13:46:48;;;;;;;49.45;17.90;;;;;;;9.21;100.00;101359.19;1504530;95;21202;-84
2021/11/12 13:49:40;;;;;;;57.50;18.42;;;;;;;9.12;100.00;101362.74;1482415;96;22023;-84
2021/11/12 13:52:28;;;;;;;44.27;15.60;;;;;;;9.04;100.00;101366.57;1477945;95;21140;-84
2021/11/12 13:55:07;;;;;;;42.40;14.43;;;;;;;8.98;100.00;101369.37;1475272;97;21865;-84
2021/11/12 13:57:34;;;;;;;38.92;14.75;;;;;;;8.89;100.00;101371.56;1475205;97;21559;-84
2021/11/12 14:00:11;;;;;;;36.80;13.72;;;;;;;8.81;100.00;101375.91;1492329;95;21179;-83
2021/11/12 14:05:33;;;;;;;34.30;12.85;;;;;;;8.62;100.00;101373.28;1476321;97;21009;-83
2021/11/12 14:08:09;;;;;;;36.50;12.82;;;;;;;8.53;100.00;101379.17;1476653;96;21659;-83
2021/11/12 14:10:52;;;;;;;39.88;13.38;;;;;;;8.44;100.00;101378.66;1476437;97;21139;-84
2021/11/12 14:13:21;;;;;;;37.55;13.22;;;;;;;8.37;100.00;101380.59;1434277;98;21131;-84
2021/11/12 14:21:32;;;;;;;41.70;13.83;;;;;;;8.06;100.00;101389.13;1436984;98;21164;-84
2021/11/12 14:44:46;;;;;;;39.03;15.18;;;;;;;7.42;100.00;101407.27;1419255;101;21160;-85
2021/11/12 14:47:21;;;;;;;48.68;16.48;;;;;;;7.37;100.00;101410.30;1438617;99;21076;-86
2021/11/12 14:49:54;;;;;;;42.48;15.53;;;;;;;7.31;100.00;101411.98;1387671;99;21195;-87
2021/11/12 14:52:17;;;;;;;42.70;16.07;;;;;;;7.25;100.00;101416.35;1373605;102;21745;-87
2021/11/12 14:59:58;;;;;;;53.05;17.92;;;;;;;7.08;100.00;101421.11;1399648;102;21960;-86
2021/11/12 15:02:22;;;;;;;;;;;;;;;7.04;100.00;101425.56;1389715;101;21124;-86
2021/11/12 15:04:48;;;;;;;51.55;17.50;;;;;;;6.97;100.00;101413.23;1383871;102;20654;-86
2021/11/12 15:07:21;;;;;;;51.60;18.35;;;;;;;6.91;100.00;101422.13;1398203;102;21218;-87
2021/11/12 15:09:42;;;;;;;303.92;90.65;;;;;;;6.84;100.00;101427.53;1432449;97;21688;-87
2021/11/12 15:12:10;;;;;;;66.02;22.80;;;;;;;6.79;100.00;101422.84;1465869;97;21182;-86
2021/11/12 15:14:43;;;;;;;55.88;20.08;;;;;;;6.76;100.00;101428.59;1473170;97;21222;-87
2021/11/12 15:17:07;;;;;;;48.02;18.20;;;;;;;6.74;100.00;101443.27;1472950;95;21634;-87
2021/11/12 15:19:36;;;;;;;70.32;26.33;;;;;;;6.71;100.00;101441.83;1464448;97;21630;-87
2021/11/12 15:27:28;;;;;;;54.93;20.25;;;;;;;6.60;100.00;101453.20;1537733;93;21593;-87
2021/11/12 15:32:18;;;;;;;60.63;20.80;;;;;;;6.53;100.00;101449.71;1476999;97;21085;-87
2021/11/12 15:47:52;;;;;;;64.60;23.67;;;;;;;6.29;100.00;101460.60;1479262;95;21100;-85
2021/11/12 16:00:49;;;;;;;56.05;21.82;;;;;;;6.09;100.00;101482.89;1427401;99;20940;-85
2021/11/12 16:05:52;;;;;;;64.97;23.73;;;;;;;6.01;100.00;101481.76;1402821;100;20999;-85
2021/11/12 16:11:11;;;;;;;65.45;24.20;;;;;;;5.90;100.00;101478.34;1437914;98;22616;-86
2021/11/12 16:13:25;;;;;;;60.03;23.25;;;;;;;5.82;100.00;101482.55;1474054;97;21088;-85
2021/11/12 16:18:39;;;;;;;63.25;23.62;;;;;;;5.68;100.00;101485.77;1475537;97;21645;-85
2021/11/12 16:23:44;;;;;;;52.80;21.42;;;;;;;5.50;100.00;101497.06;1457721;97;20960;-84
2021/11/12 16:25:54;;;;;;;57.05;21.12;;;;;;;5.41;100.00;101496.92;1457660;97;21154;-84
2021/11/12 16:28:21;;;;;;;59.75;22.65;;;;;;;5.35;100.00;101496.39;1474383;95;21141;-86
2021/11/12 16:30:59;;;;;;;54.67;22.75;;;;;;;5.31;100.00;101503.19;1474585;95;21878;-86
2021/11/12 16:33:26;;;;;;;55.55;21.68;;;;;;;5.23;100.00;101503.70;1522861;93;21580;-87
2021/11/12 16:35:53;;;;;;;55.78;22.37;;;;;;;5.19;100.00;101506.95;1499887;93;21102;-86
2021/11/12 16:38:28;;;;;;;53.80;21.30;;;;;;;5.18;100.00;101502.65;1498201;93;22136;-87
2021/11/12 16:41:01;;;;;;;55.48;20.62;;;;;;;5.15;100.00;101510.55;1526310;91;21126;-86
2021/11/12 16:59:18;;;;;;;59.20;21.95;;;;;;;5.04;100.00;101525.81;1643182;87;21012;-85
2021/11/12 17:01:57;;;;;;;59.13;21.85;;;;;;;5.05;100.00;101531.46;1645755;86;21126;-86
2021/11/12 17:04:16;;;;;;;52.15;20.70;;;;;;;5.10;100.00;101530.36;1627893;85;21559;-86
2021/11/12 17:09:26;;;;;;;54.85;20.75;;;;;;;5.15;100.00;101521.23;1590975;88;21145;-86
2021/11/12 17:11:46;;;;;;;55.65;21.17;;;;;;;5.17;100.00;101513.00;1623856;85;21530;-86
2021/11/12 17:16:43;;;;;;;60.63;24.15;;;;;;;5.22;100.00;101518.06;1630988;85;21031;-86
2021/11/12 17:19:19;;;;;;;57.75;23.07;;;;;;;5.28;100.00;101524.97;1633129;85;21078;-85
2021/11/12 17:45:56;;;;;;;62.53;24.40;;;;;;;5.62;100.00;101540.88;1600188;88;21114;-85
2021/11/12 17:48:23;;;;;;;56.25;22.37;;;;;;;5.66;100.00;101542.11;1600348;88;21856;-85
2021/11/12 18:01:48;;;;;;;66.92;25.02;;;;;;;5.97;100.00;101547.42;1529845;92;21583;-85
2021/11/12 18:04:10;;;;;;;64.80;24.70;;;;;;;6.07;100.00;101553.70;1529726;92;21210;-85
2021/11/12 18:06:36;;;;;;;63.90;25.40;;;;;;;6.09;100.00;101548.97;1529656;93;21107;-85
2021/11/12 18:12:21;;;;;;;75.05;26.17;;;;;;;6.21;100.00;101543.30;1528878;92;21111;-85
2021/11/12 21:45:10;;;;;;;89.05;29.72;;;;;;;4.42;100.00;101682.35;1429054;99;21346;-86
2021/11/12 21:47:32;;;;;;;88.78;29.67;;;;;;;4.30;100.00;101677.22;1426456;100;21275;-86
2021/11/12 21:49:58;;;;;;;76.55;28.52;;;;;;;4.20;100.00;101677.52;1429051;100;20945;-86
2021/11/12 21:52:24;;;;;;;83.37;30.40;;;;;;;4.14;100.00;101683.62;1429099;100;21163;-86
2021/11/12 21:54:50;;;;;;;89.92;29.85;;;;;;;4.08;100.00;101673.20;1443313;98;21969;-86
2021/11/12 21:57:16;;;;;;;77.55;28.90;;;;;;;4.02;100.00;101674.47;1462291;98;21050;-86
2021/11/12 21:59:42;;;;;;;83.95;30.92;;;;;;;3.99;100.00;101682.34;1502978;92;21133;-88
2021/11/12 22:02:09;;;;;;;81.78;29.23;;;;;;;3.94;100.00;101680.77;1550775;92;20951;-88
2021/11/12 22:04:35;;;;;;;81.08;28.80;;;;;;;3.87;100.00;101687.86;1550659;92;21188;-86